sensor_id;sensor_type;location;lat;lon;timestamp;pressure;altitude;pressure_sealevel;temperature;humidity
13709;BME280;54933;51.908;7.730;2022-07-17T00:02:00;102084.53;;;23.71;99.63
13709;BME280;54933;51.908;7.730;2022-07-17T00:04:25;102092.69;;;23.71;99.63
13709;BME280;54933;51.908;7.730;2022-07-17T00:06:51;102089.13;;;23.71;99.42
13709;BME280;54933;51.908;7.730;2022-07-17T00:09:16;102094.34;;;23.72;99.58
13709;BME280;54933;51.908;7.730;2022-07-17T00:11:41;102089.97;;;23.71;99.26
13709;BME280;54933;51.908;7.730;2022-07-17T00:14:07;102095.41;;;23.71;99.67
13709;BME280;54933;51.908;7.730;2022-07-17T00:16:32;102089.97;;;23.71;99.39
13709;BME280;54933;51.908;7.730;2022-07-17T00:18:57;102091.03;;;23.70;99.35
13709;BME280;54933;51.908;7.730;2022-07-17T00:21:23;102093.72;;;23.70;99.50
13709;BME280;54933;51.908;7.730;2022-07-17T00:23:48;102088.31;;;23.70;99.38
13709;BME280;54933;51.908;7.730;2022-07-17T00:26:13;102081.81;;;23.71;99.22
13709;BME280;54933;51.908;7.730;2022-07-17T00:28:38;102078.25;;;23.71;99.33
13709;BME280;54933;51.908;7.730;2022-07-17T00:31:04;102082.88;;;23.70;99.10
13709;BME280;54933;51.908;7.730;2022-07-17T00:33:30;102084.53;;;23.71;99.20
13709;BME280;54933;51.908;7.730;2022-07-17T00:35:55;102077.44;;;23.70;99.16
13709;BME280;54933;51.908;7.730;2022-07-17T00:38:20;102079.09;;;23.71;99.16
13709;BME280;54933;51.908;7.730;2022-07-17T00:40:46;102076.41;;;23.71;99.06
13709;BME280;54933;51.908;7.730;2022-07-17T00:43:11;102079.09;;;23.71;99.36
13709;BME280;54933;51.908;7.730;2022-07-17T00:45:36;102079.09;;;23.71;99.25
13709;BME280;54933;51.908;7.730;2022-07-17T00:48:09;102089.97;;;23.71;99.24
13709;BME280;54933;51.908;7.730;2022-07-17T00:50:38;102081.81;;;23.71;99.36
13709;BME280;54933;51.908;7.730;2022-07-17T00:53:05;102081.81;;;23.71;99.56
13709;BME280;54933;51.908;7.730;2022-07-17T00:55:31;102083.69;;;23.71;99.48
13709;BME280;54933;51.908;7.730;2022-07-17T00:57:57;102086.41;;;23.71;99.32
13709;BME280;54933;51.908;7.730;2022-07-17T01:00:23;102082.88;;;23.70;99.30
13709;BME280;54933;51.908;7.730;2022-07-17T01:02:51;102085.59;;;23.70;99.53
13709;BME280;54933;51.908;7.730;2022-07-17T01:05:18;102089.13;;;23.71;99.38
13709;BME280;54933;51.908;7.730;2022-07-17T01:07:44;102081.81;;;23.71;99.62
13709;BME280;54933;51.908;7.730;2022-07-17T01:10:11;102083.69;;;23.71;99.60
13709;BME280;54933;51.908;7.730;2022-07-17T01:12:37;102088.31;;;23.70;99.45
13709;BME280;54933;51.908;7.730;2022-07-17T01:15:03;102091.84;;;23.71;99.54
13709;BME280;54933;51.908;7.730;2022-07-17T01:17:30;102088.31;;;23.70;99.52
13709;BME280;54933;51.908;7.730;2022-07-17T01:19:55;102093.72;;;23.70;99.45
13709;BME280;54933;51.908;7.730;2022-07-17T01:22:21;102091.03;;;23.70;99.68
13709;BME280;54933;51.908;7.730;2022-07-17T01:24:46;102087.25;;;23.71;99.43
13709;BME280;54933;51.908;7.730;2022-07-17T01:27:11;102087.47;;;23.70;99.53
13709;BME280;54933;51.908;7.730;2022-07-17T01:29:38;102091.03;;;23.70;99.64
13709;BME280;54933;51.908;7.730;2022-07-17T01:32:04;102091.22;;;23.69;99.57
13709;BME280;54933;51.908;7.730;2022-07-17T01:34:29;102091.03;;;23.70;99.76
13709;BME280;54933;51.908;7.730;2022-07-17T01:36:54;102081.19;;;23.69;99.67
13709;BME280;54933;51.908;7.730;2022-07-17T01:39:20;102091.84;;;23.71;99.81
13709;BME280;54933;51.908;7.730;2022-07-17T01:42:08;102089.31;;;23.69;99.67
13709;BME280;54933;51.908;7.730;2022-07-17T01:44:34;102080.38;;;23.69;99.78
13709;BME280;54933;51.908;7.730;2022-07-17T01:46:59;102092.88;;;23.70;99.72
13709;BME280;54933;51.908;7.730;2022-07-17T01:49:24;102088.50;;;23.69;99.57
13709;BME280;54933;51.908;7.730;2022-07-17T01:51:50;102086.63;;;23.69;99.54
13709;BME280;54933;51.908;7.730;2022-07-17T01:54:15;102096.66;;;23.69;99.74
13709;BME280;54933;51.908;7.730;2022-07-17T01:56:40;102100.19;;;23.69;99.51
13709;BME280;54933;51.908;7.730;2022-07-17T01:59:05;102089.31;;;23.69;99.22
13709;BME280;54933;51.908;7.730;2022-07-17T02:01:31;102073.03;;;23.69;99.25
13709;BME280;54933;51.908;7.730;2022-07-17T02:03:56;102081.19;;;23.69;99.26
13709;BME280;54933;51.908;7.730;2022-07-17T02:06:22;102086.63;;;23.69;99.34
13709;BME280;54933;51.908;7.730;2022-07-17T02:08:47;102076.59;;;23.70;99.40
13709;BME280;54933;51.908;7.730;2022-07-17T02:11:16;102079.53;;;23.68;99.30
13709;BME280;54933;51.908;7.730;2022-07-17T02:13:41;102072.22;;;23.69;99.26
13709;BME280;54933;51.908;7.730;2022-07-17T02:16:06;102082.03;;;23.70;99.32
13709;BME280;54933;51.908;7.730;2022-07-17T02:18:32;102081.19;;;23.69;99.14
13709;BME280;54933;51.908;7.730;2022-07-17T02:20:57;102078.47;;;23.69;98.90
13709;BME280;54933;51.908;7.730;2022-07-17T02:23:22;102086.63;;;23.69;99.06
13709;BME280;54933;51.908;7.730;2022-07-17T02:25:47;102085.78;;;23.69;98.91
13709;BME280;54933;51.908;7.730;2022-07-17T02:28:13;102080.38;;;23.69;98.91
13709;BME280;54933;51.908;7.730;2022-07-17T02:30:38;102080.38;;;23.69;98.97
13709;BME280;54933;51.908;7.730;2022-07-17T02:33:03;102083.09;;;23.69;98.78
13709;BME280;54933;51.908;7.730;2022-07-17T02:35:28;102080.38;;;23.69;98.88
13709;BME280;54933;51.908;7.730;2022-07-17T02:37:54;102092.88;;;23.70;98.86
13709;BME280;54933;51.908;7.730;2022-07-17T02:40:19;102091.22;;;23.69;99.02
13709;BME280;54933;51.908;7.730;2022-07-17T02:42:44;102087.47;;;23.70;98.73
13709;BME280;54933;51.908;7.730;2022-07-17T02:45:10;102092.03;;;23.69;98.79
13709;BME280;54933;51.908;7.730;2022-07-17T02:47:36;102084.75;;;23.70;98.89
13709;BME280;54933;51.908;7.730;2022-07-17T02:50:04;102085.78;;;23.69;98.86
13709;BME280;54933;51.908;7.730;2022-07-17T02:52:30;102079.53;;;23.68;98.73
13709;BME280;54933;51.908;7.730;2022-07-17T02:54:55;102092.03;;;23.69;99.04
13709;BME280;54933;51.908;7.730;2022-07-17T02:57:20;102086.81;;;23.68;98.76
13709;BME280;54933;51.908;7.730;2022-07-17T02:59:46;102084.09;;;23.68;98.78
13709;BME280;54933;51.908;7.730;2022-07-17T03:02:12;102087.66;;;23.68;98.96
13709;BME280;54933;51.908;7.730;2022-07-17T03:04:37;102093.09;;;23.68;98.92
13709;BME280;54933;51.908;7.730;2022-07-17T03:07:03;102093.09;;;23.68;99.00
13709;BME280;54933;51.908;7.730;2022-07-17T03:09:28;102095.81;;;23.68;98.89
13709;BME280;54933;51.908;7.730;2022-07-17T03:11:54;102101.22;;;23.68;98.75
13709;BME280;54933;51.908;7.730;2022-07-17T03:14:19;102103.94;;;23.68;98.89
13709;BME280;54933;51.908;7.730;2022-07-17T03:16:44;102106.66;;;23.68;98.90
13709;BME280;54933;51.908;7.730;2022-07-17T03:19:09;102100.38;;;23.68;98.93
13709;BME280;54933;51.908;7.730;2022-07-17T03:21:35;102102.25;;;23.67;99.07
13709;BME280;54933;51.908;7.730;2022-07-17T03:24:00;102104.97;;;23.67;98.85
13709;BME280;54933;51.908;7.730;2022-07-17T03:26:25;102099.53;;;23.67;98.92
13709;BME280;54933;51.908;7.730;2022-07-17T03:28:51;102104.97;;;23.67;99.13
13709;BME280;54933;51.908;7.730;2022-07-17T03:31:16;102106.88;;;23.67;98.93
13709;BME280;54933;51.908;7.730;2022-07-17T03:33:41;102102.25;;;23.67;99.14
13709;BME280;54933;51.908;7.730;2022-07-17T03:36:07;102094.13;;;23.67;99.45
13709;BME280;54933;51.908;7.730;2022-07-17T03:38:33;102094.13;;;23.67;99.19
13709;BME280;54933;51.908;7.730;2022-07-17T03:40:58;102097.88;;;23.66;99.19
13709;BME280;54933;51.908;7.730;2022-07-17T03:43:23;102093.28;;;23.67;99.08
13709;BME280;54933;51.908;7.730;2022-07-17T03:45:48;102099.53;;;23.67;99.13
13709;BME280;54933;51.908;7.730;2022-07-17T03:48:14;102099.53;;;23.67;99.03
13709;BME280;54933;51.908;7.730;2022-07-17T03:50:39;102104.97;;;23.67;98.94
13709;BME280;54933;51.908;7.730;2022-07-17T03:53:04;102103.31;;;23.66;98.97
13709;BME280;54933;51.908;7.730;2022-07-17T03:55:30;102118.53;;;23.67;99.01
13709;BME280;54933;51.908;7.730;2022-07-17T03:57:55;102120.44;;;23.67;98.97
13709;BME280;54933;51.908;7.730;2022-07-17T04:00:20;102121.25;;;23.67;98.96
13709;BME280;54933;51.908;7.730;2022-07-17T04:02:45;102119.59;;;23.66;98.72
13709;BME280;54933;51.908;7.730;2022-07-17T04:05:11;102119.59;;;23.66;98.74
13709;BME280;54933;51.908;7.730;2022-07-17T04:07:38;102122.31;;;23.66;98.60
13709;BME280;54933;51.908;7.730;2022-07-17T04:10:04;102116.88;;;23.66;98.61
13709;BME280;54933;51.908;7.730;2022-07-17T04:12:30;102110.41;;;23.67;98.60
13709;BME280;54933;51.908;7.730;2022-07-17T04:14:55;102120.44;;;23.67;98.23
13709;BME280;54933;51.908;7.730;2022-07-17T04:17:21;102104.16;;;23.67;98.35
13709;BME280;54933;51.908;7.730;2022-07-17T04:19:46;102104.97;;;23.67;98.18
13709;BME280;54933;51.908;7.730;2022-07-17T04:22:12;102104.97;;;23.67;98.18
13709;BME280;54933;51.908;7.730;2022-07-17T04:24:37;102088.88;;;23.66;98.10
13709;BME280;54933;51.908;7.730;2022-07-17T04:27:03;102084.31;;;23.66;98.06
13709;BME280;54933;51.908;7.730;2022-07-17T04:29:28;102096.00;;;23.67;98.13
13709;BME280;54933;51.908;7.730;2022-07-17T04:31:53;102094.13;;;23.67;98.23
13709;BME280;54933;51.908;7.730;2022-07-17T04:34:19;102098.72;;;23.67;98.00
13709;BME280;54933;51.908;7.730;2022-07-17T04:36:44;102101.44;;;23.67;98.01
13709;BME280;54933;51.908;7.730;2022-07-17T04:39:09;102104.97;;;23.67;97.95
13709;BME280;54933;51.908;7.730;2022-07-17T04:41:34;102109.59;;;23.67;97.81
13709;BME280;54933;51.908;7.730;2022-07-17T04:44:00;102121.25;;;23.67;98.02
13709;BME280;54933;51.908;7.730;2022-07-17T04:46:25;102128.56;;;23.67;97.95
13709;BME280;54933;51.908;7.730;2022-07-17T04:48:50;102132.09;;;23.67;97.85
13709;BME280;54933;51.908;7.730;2022-07-17T04:51:16;102137.53;;;23.67;97.76
13709;BME280;54933;51.908;7.730;2022-07-17T04:53:41;102140.25;;;23.67;98.00
13709;BME280;54933;51.908;7.730;2022-07-17T04:56:06;102142.97;;;23.67;97.84
13709;BME280;54933;51.908;7.730;2022-07-17T04:58:32;102136.72;;;23.67;97.86
13709;BME280;54933;51.908;7.730;2022-07-17T05:00:57;102137.53;;;23.67;98.00
13709;BME280;54933;51.908;7.730;2022-07-17T05:03:22;102132.09;;;23.67;97.45
13709;BME280;54933;51.908;7.730;2022-07-17T05:05:47;102135.88;;;23.66;98.01
13709;BME280;54933;51.908;7.730;2022-07-17T05:08:13;102137.53;;;23.67;97.90
13709;BME280;54933;51.908;7.730;2022-07-17T05:10:38;102138.59;;;23.66;97.75
13709;BME280;54933;51.908;7.730;2022-07-17T05:13:03;102135.88;;;23.66;98.11
13709;BME280;54933;51.908;7.730;2022-07-17T05:15:29;102130.44;;;23.66;98.14
13709;BME280;54933;51.908;7.730;2022-07-17T05:17:54;102137.75;;;23.66;98.07
13709;BME280;54933;51.908;7.730;2022-07-17T05:20:19;102133.16;;;23.66;98.03
13709;BME280;54933;51.908;7.730;2022-07-17T05:22:44;102127.72;;;23.66;98.25
13709;BME280;54933;51.908;7.730;2022-07-17T05:25:10;102125.00;;;23.66;98.23
13709;BME280;54933;51.908;7.730;2022-07-17T05:27:35;102125.88;;;23.67;98.02
13709;BME280;54933;51.908;7.730;2022-07-17T05:30:00;102130.44;;;23.66;98.45
13709;BME280;54933;51.908;7.730;2022-07-17T05:32:26;102132.09;;;23.67;98.06
13709;BME280;54933;51.908;7.730;2022-07-17T05:34:51;102130.44;;;23.66;98.29
13709;BME280;54933;51.908;7.730;2022-07-17T05:37:16;102125.88;;;23.67;98.27
13709;BME280;54933;51.908;7.730;2022-07-17T05:39:42;102125.00;;;23.66;98.47
13709;BME280;54933;51.908;7.730;2022-07-17T05:42:07;102122.31;;;23.66;98.34
13709;BME280;54933;51.908;7.730;2022-07-17T05:44:32;102123.34;;;23.65;98.23
13709;BME280;54933;51.908;7.730;2022-07-17T05:46:57;102126.88;;;23.66;98.43
13709;BME280;54933;51.908;7.730;2022-07-17T05:49:23;102130.44;;;23.66;98.42
13709;BME280;54933;51.908;7.730;2022-07-17T05:51:48;102128.78;;;23.65;98.43
13709;BME280;54933;51.908;7.730;2022-07-17T05:54:13;102128.78;;;23.65;98.24
13709;BME280;54933;51.908;7.730;2022-07-17T05:56:38;102124.16;;;23.66;98.37
13709;BME280;54933;51.908;7.730;2022-07-17T05:59:04;102124.16;;;23.66;98.51
13709;BME280;54933;51.908;7.730;2022-07-17T06:01:29;102132.50;;;23.64;98.31
13709;BME280;54933;51.908;7.730;2022-07-17T06:03:54;102128.78;;;23.65;98.19
13709;BME280;54933;51.908;7.730;2022-07-17T06:06:20;102126.06;;;23.65;97.98
13709;BME280;54933;51.908;7.730;2022-07-17T06:08:46;102130.44;;;23.66;97.94
13709;BME280;54933;51.908;7.730;2022-07-17T06:11:12;102136.94;;;23.65;97.83
13709;BME280;54933;51.908;7.730;2022-07-17T06:13:37;102142.16;;;23.67;97.91
13709;BME280;54933;51.908;7.730;2022-07-17T06:16:03;102152.16;;;23.66;97.75
13709;BME280;54933;51.908;7.730;2022-07-17T06:18:28;102157.59;;;23.66;97.83
13709;BME280;54933;51.908;7.730;2022-07-17T06:20:53;102153.00;;;23.67;97.54
13709;BME280;54933;51.908;7.730;2022-07-17T06:23:19;102152.16;;;23.66;97.71
13709;BME280;54933;51.908;7.730;2022-07-17T06:25:44;102157.59;;;23.66;97.97
13709;BME280;54933;51.908;7.730;2022-07-17T06:28:09;102146.72;;;23.66;97.43
13709;BME280;54933;51.908;7.730;2022-07-17T06:30:35;102138.59;;;23.66;97.58
13709;BME280;54933;51.908;7.730;2022-07-17T06:33:00;102127.72;;;23.66;97.47
13709;BME280;54933;51.908;7.730;2022-07-17T06:35:25;102127.72;;;23.66;97.60
13709;BME280;54933;51.908;7.730;2022-07-17T06:37:50;102119.59;;;23.66;97.85
13709;BME280;54933;51.908;7.730;2022-07-17T06:40:16;102114.16;;;23.66;97.52
13709;BME280;54933;51.908;7.730;2022-07-17T06:42:41;102124.16;;;23.66;97.83
13709;BME280;54933;51.908;7.730;2022-07-17T06:45:07;102136.72;;;23.67;97.58
13709;BME280;54933;51.908;7.730;2022-07-17T06:47:32;102145.88;;;23.66;97.61
13709;BME280;54933;51.908;7.730;2022-07-17T06:49:57;102147.56;;;23.67;97.68
13709;BME280;54933;51.908;7.730;2022-07-17T06:52:23;102141.31;;;23.66;97.69
13709;BME280;54933;51.908;7.730;2022-07-17T06:54:48;102136.72;;;23.67;97.73
13709;BME280;54933;51.908;7.730;2022-07-17T06:57:13;102135.03;;;23.66;98.15
13709;BME280;54933;51.908;7.730;2022-07-17T06:59:38;102135.88;;;23.66;97.78
13709;BME280;54933;51.908;7.730;2022-07-17T07:02:05;102130.44;;;23.66;97.83
13709;BME280;54933;51.908;7.730;2022-07-17T07:04:31;102125.00;;;23.66;97.87
13709;BME280;54933;51.908;7.730;2022-07-17T07:06:56;102128.78;;;23.65;97.76
13709;BME280;54933;51.908;7.730;2022-07-17T07:09:21;102131.50;;;23.65;97.67
13709;BME280;54933;51.908;7.730;2022-07-17T07:11:46;102130.44;;;23.66;98.27
13709;BME280;54933;51.908;7.730;2022-07-17T07:14:12;102129.59;;;23.66;97.83
13709;BME280;54933;51.908;7.730;2022-07-17T07:16:37;102125.88;;;23.67;97.90
13709;BME280;54933;51.908;7.730;2022-07-17T07:19:03;102116.03;;;23.66;97.77
13709;BME280;54933;51.908;7.730;2022-07-17T07:21:28;102124.16;;;23.66;97.89
13709;BME280;54933;51.908;7.730;2022-07-17T07:23:54;102124.16;;;23.66;97.89
13709;BME280;54933;51.908;7.730;2022-07-17T07:26:20;102123.34;;;23.65;98.04
13709;BME280;54933;51.908;7.730;2022-07-17T07:28:45;102118.75;;;23.66;98.07
13709;BME280;54933;51.908;7.730;2022-07-17T07:31:11;102107.88;;;23.66;98.10
13709;BME280;54933;51.908;7.730;2022-07-17T07:33:37;102104.34;;;23.65;97.96
13709;BME280;54933;51.908;7.730;2022-07-17T07:36:03;102098.94;;;23.65;98.00
13709;BME280;54933;51.908;7.730;2022-07-17T07:38:28;102104.34;;;23.65;97.96
13709;BME280;54933;51.908;7.730;2022-07-17T07:40:54;102114.16;;;23.66;98.24
13709;BME280;54933;51.908;7.730;2022-07-17T07:43:19;102117.94;;;23.65;98.99
13709;BME280;54933;51.908;7.730;2022-07-17T07:45:44;102117.94;;;23.65;98.15
13709;BME280;54933;51.908;7.730;2022-07-17T07:48:10;102132.31;;;23.66;98.25
13709;BME280;54933;51.908;7.730;2022-07-17T07:50:35;102133.16;;;23.66;98.17
13709;BME280;54933;51.908;7.730;2022-07-17T07:53:01;102139.63;;;23.65;98.09
13709;BME280;54933;51.908;7.730;2022-07-17T07:55:27;102150.50;;;23.65;98.26
13709;BME280;54933;51.908;7.730;2022-07-17T07:58:06;102156.75;;;23.66;98.36
13709;BME280;54933;51.908;7.730;2022-07-17T08:00:32;102164.06;;;23.65;98.20
13709;BME280;54933;51.908;7.730;2022-07-17T08:02:57;102162.16;;;23.66;98.16
13709;BME280;54933;51.908;7.730;2022-07-17T08:05:23;102163.00;;;23.66;98.24
13709;BME280;54933;51.908;7.730;2022-07-17T08:07:48;102165.72;;;23.66;98.14
13709;BME280;54933;51.908;7.730;2022-07-17T08:10:13;102164.88;;;23.66;98.18
13709;BME280;54933;51.908;7.730;2022-07-17T08:12:38;102162.16;;;23.66;98.04
13709;BME280;54933;51.908;7.730;2022-07-17T08:15:05;102166.78;;;23.65;97.96
13709;BME280;54933;51.908;7.730;2022-07-17T08:17:30;102172.22;;;23.65;98.24
13709;BME280;54933;51.908;7.730;2022-07-17T08:19:56;102173.88;;;23.66;98.09
13709;BME280;54933;51.908;7.730;2022-07-17T08:22:21;102174.91;;;23.65;98.41
13709;BME280;54933;51.908;7.730;2022-07-17T08:24:46;102163.00;;;23.66;98.41
13709;BME280;54933;51.908;7.730;2022-07-17T08:27:11;102172.22;;;23.65;98.21
13709;BME280;54933;51.908;7.730;2022-07-17T08:29:37;102173.03;;;23.66;98.27
13709;BME280;54933;51.908;7.730;2022-07-17T08:32:02;102176.59;;;23.66;98.12
13709;BME280;54933;51.908;7.730;2022-07-17T08:34:27;102173.03;;;23.66;98.35
13709;BME280;54933;51.908;7.730;2022-07-17T08:36:53;102173.03;;;23.66;98.21
13709;BME280;54933;51.908;7.730;2022-07-17T08:39:18;102180.16;;;23.67;98.27
13709;BME280;54933;51.908;7.730;2022-07-17T08:41:43;102172.22;;;23.65;98.18
13709;BME280;54933;51.908;7.730;2022-07-17T08:44:09;102171.16;;;23.66;98.30
13709;BME280;54933;51.908;7.730;2022-07-17T08:46:38;102163.00;;;23.66;98.23
13709;BME280;54933;51.908;7.730;2022-07-17T08:49:06;102168.44;;;23.66;98.26
13709;BME280;54933;51.908;7.730;2022-07-17T08:51:32;102157.59;;;23.66;98.23
13709;BME280;54933;51.908;7.730;2022-07-17T08:53:58;102166.56;;;23.67;98.41
13709;BME280;54933;51.908;7.730;2022-07-17T08:56:24;102169.28;;;23.67;98.27
13709;BME280;54933;51.908;7.730;2022-07-17T08:58:50;102164.69;;;23.67;98.55
13709;BME280;54933;51.908;7.730;2022-07-17T09:01:18;102164.69;;;23.67;98.39
13709;BME280;54933;51.908;7.730;2022-07-17T09:04:01;102154.88;;;23.66;98.50
13709;BME280;54933;51.908;7.730;2022-07-17T09:06:34;102155.72;;;23.67;98.66
13709;BME280;54933;51.908;7.730;2022-07-17T09:09:05;102151.09;;;23.67;98.78
13709;BME280;54933;51.908;7.730;2022-07-17T09:11:44;102142.97;;;23.67;99.04
13709;BME280;54933;51.908;7.730;2022-07-17T09:14:10;102148.38;;;23.67;98.99
13709;BME280;54933;51.908;7.730;2022-07-17T09:16:35;102150.09;;;23.68;98.76
13709;BME280;54933;51.908;7.730;2022-07-17T09:19:02;102146.72;;;23.66;98.88
13709;BME280;54933;51.908;7.730;2022-07-17T09:21:28;102145.69;;;23.67;98.94
13709;BME280;54933;51.908;7.730;2022-07-17T09:24:02;102145.69;;;23.67;99.17
13709;BME280;54933;51.908;7.730;2022-07-17T09:26:28;102140.25;;;23.67;99.17
13709;BME280;54933;51.908;7.730;2022-07-17T09:28:54;102145.69;;;23.67;99.05
13709;BME280;54933;51.908;7.730;2022-07-17T09:31:31;102148.38;;;23.67;99.15
13709;BME280;54933;51.908;7.730;2022-07-17T09:33:58;102149.25;;;23.68;99.15
13709;BME280;54933;51.908;7.730;2022-07-17T09:36:24;102152.81;;;23.68;99.32
13709;BME280;54933;51.908;7.730;2022-07-17T09:38:53;102150.28;;;23.67;99.24
13709;BME280;54933;51.908;7.730;2022-07-17T09:41:20;102159.25;;;23.67;99.32
13709;BME280;54933;51.908;7.730;2022-07-17T09:43:59;102159.06;;;23.69;99.42
13709;BME280;54933;51.908;7.730;2022-07-17T09:46:26;102153.81;;;23.67;99.26
13709;BME280;54933;51.908;7.730;2022-07-17T09:49:05;102153.81;;;23.67;99.45
13709;BME280;54933;51.908;7.730;2022-07-17T09:51:34;102145.69;;;23.67;99.61
13709;BME280;54933;51.908;7.730;2022-07-17T09:54:03;102142.97;;;23.67;99.54
13709;BME280;54933;51.908;7.730;2022-07-17T09:56:31;102148.38;;;23.67;99.57
13709;BME280;54933;51.908;7.730;2022-07-17T09:59:03;102153.81;;;23.67;99.56
13709;BME280;54933;51.908;7.730;2022-07-17T10:01:29;102145.50;;;23.69;99.71
13709;BME280;54933;51.908;7.730;2022-07-17T10:03:55;102138.38;;;23.68;99.68
13709;BME280;54933;51.908;7.730;2022-07-17T10:06:24;102137.38;;;23.69;99.73
13709;BME280;54933;51.908;7.730;2022-07-17T10:08:51;102140.06;;;23.69;99.85
13709;BME280;54933;51.908;7.730;2022-07-17T10:11:20;102140.06;;;23.69;99.75
13709;BME280;54933;51.908;7.730;2022-07-17T10:13:47;102143.59;;;23.69;99.78
13709;BME280;54933;51.908;7.730;2022-07-17T10:16:13;102140.91;;;23.69;99.89
13709;BME280;54933;51.908;7.730;2022-07-17T10:18:41;102146.31;;;23.69;99.88
13709;BME280;54933;51.908;7.730;2022-07-17T10:21:12;102157.19;;;23.69;99.80
13709;BME280;54933;51.908;7.730;2022-07-17T10:23:39;102150.72;;;23.70;99.68
13709;BME280;54933;51.908;7.730;2022-07-17T10:26:04;102146.31;;;23.69;99.91
13709;BME280;54933;51.908;7.730;2022-07-17T10:28:43;102152.59;;;23.70;99.73
13709;BME280;54933;51.908;7.730;2022-07-17T10:31:08;102154.47;;;23.69;99.76
13709;BME280;54933;51.908;7.730;2022-07-17T10:33:35;102151.75;;;23.69;99.78
13709;BME280;54933;51.908;7.730;2022-07-17T10:36:00;102156.16;;;23.70;99.84
13709;BME280;54933;51.908;7.730;2022-07-17T10:38:27;102152.59;;;23.70;99.94
13709;BME280;54933;51.908;7.730;2022-07-17T10:41:00;102141.75;;;23.70;99.86
13709;BME280;54933;51.908;7.730;2022-07-17T10:43:25;102145.31;;;23.70;99.72
13709;BME280;54933;51.908;7.730;2022-07-17T10:45:51;102137.97;;;23.71;99.63
13709;BME280;54933;51.908;7.730;2022-07-17T10:48:18;102144.25;;;23.71;99.80
13709;BME280;54933;51.908;7.730;2022-07-17T10:50:45;102132.53;;;23.71;99.64
13709;BME280;54933;51.908;7.730;2022-07-17T10:53:21;102138.81;;;23.71;99.98
13709;BME280;54933;51.908;7.730;2022-07-17T10:55:58;102133.41;;;23.71;99.84
13709;BME280;54933;51.908;7.730;2022-07-17T10:58:34;102137.78;;;23.72;99.71
13709;BME280;54933;51.908;7.730;2022-07-17T11:06:14;102141.53;;;23.71;100.00
13709;BME280;54933;51.908;7.730;2022-07-17T11:14:12;102136.09;;;23.71;99.97
13709;BME280;54933;51.908;7.730;2022-07-17T11:16:45;102133.41;;;23.71;99.76
13709;BME280;54933;51.908;7.730;2022-07-17T11:19:11;102145.09;;;23.72;100.00
13709;BME280;54933;51.908;7.730;2022-07-17T11:21:46;102144.25;;;23.71;99.91
13709;BME280;54933;51.908;7.730;2022-07-17T11:24:11;102138.81;;;23.71;99.90
13709;BME280;54933;51.908;7.730;2022-07-17T11:26:37;102133.41;;;23.71;99.85
13709;BME280;54933;51.908;7.730;2022-07-17T11:29:02;102134.25;;;23.72;100.00
13709;BME280;54933;51.908;7.730;2022-07-17T11:31:27;102144.25;;;23.71;100.00
13709;BME280;54933;51.908;7.730;2022-07-17T11:34:03;102132.34;;;23.72;99.86
13709;BME280;54933;51.908;7.730;2022-07-17T11:36:37;102143.19;;;23.72;99.89
13709;BME280;54933;51.908;7.730;2022-07-17T11:39:08;102130.47;;;23.73;100.00
13709;BME280;54933;51.908;7.730;2022-07-17T11:41:38;102133.41;;;23.71;100.00
13709;BME280;54933;51.908;7.730;2022-07-17T11:44:05;102126.91;;;23.72;100.00
13709;BME280;54933;51.908;7.730;2022-07-17T11:46:31;102121.47;;;23.72;100.00
13709;BME280;54933;51.908;7.730;2022-07-17T11:48:58;102129.63;;;23.72;100.00
13709;BME280;54933;51.908;7.730;2022-07-17T11:51:43;102121.47;;;23.72;99.56
13709;BME280;54933;51.908;7.730;2022-07-17T11:54:16;102129.63;;;23.72;100.00
13709;BME280;54933;51.908;7.730;2022-07-17T11:56:53;102129.63;;;23.72;100.00
13709;BME280;54933;51.908;7.730;2022-07-17T11:59:27;102132.34;;;23.72;100.00
13709;BME280;54933;51.908;7.730;2022-07-17T12:01:52;102118.78;;;23.72;100.00
13709;BME280;54933;51.908;7.730;2022-07-17T12:04:18;102120.47;;;23.73;99.99
13709;BME280;54933;51.908;7.730;2022-07-17T12:06:45;102115.03;;;23.73;100.00
13709;BME280;54933;51.908;7.730;2022-07-17T12:09:11;102113.34;;;23.72;99.92
13709;BME280;54933;51.908;7.730;2022-07-17T12:11:47;102107.91;;;23.72;100.00
13709;BME280;54933;51.908;7.730;2022-07-17T12:14:12;102102.47;;;23.72;100.00
13709;BME280;54933;51.908;7.730;2022-07-17T12:16:38;102099.56;;;23.74;100.00
13709;BME280;54933;51.908;7.730;2022-07-17T12:19:07;102101.47;;;23.73;100.00
13709;BME280;54933;51.908;7.730;2022-07-17T12:21:47;102094.13;;;23.74;100.00
13709;BME280;54933;51.908;7.730;2022-07-17T12:24:19;102093.31;;;23.73;100.00
13709;BME280;54933;51.908;7.730;2022-07-17T12:26:45;102095.00;;;23.74;99.96
13709;BME280;54933;51.908;7.730;2022-07-17T12:29:10;102082.47;;;23.73;99.89
13709;BME280;54933;51.908;7.730;2022-07-17T12:31:35;102077.03;;;23.73;100.00
13709;BME280;54933;51.908;7.730;2022-07-17T12:34:01;102083.28;;;23.74;100.00
13709;BME280;54933;51.908;7.730;2022-07-17T12:36:26;102078.69;;;23.74;99.96
13709;BME280;54933;51.908;7.730;2022-07-17T12:38:51;102084.13;;;23.74;99.86
13709;BME280;54933;51.908;7.730;2022-07-17T12:41:17;102074.13;;;23.75;99.92
13709;BME280;54933;51.908;7.730;2022-07-17T12:43:42;102080.41;;;23.75;100.00
13709;BME280;54933;51.908;7.730;2022-07-17T12:46:08;102084.13;;;23.74;99.98
13709;BME280;54933;51.908;7.730;2022-07-17T12:48:33;102082.25;;;23.75;99.95
13709;BME280;54933;51.908;7.730;2022-07-17T12:51:00;102073.28;;;23.74;99.87
13709;BME280;54933;51.908;7.730;2022-07-17T12:53:25;102079.53;;;23.75;100.00
13709;BME280;54933;51.908;7.730;2022-07-17T12:55:50;102077.69;;;23.75;100.00
13709;BME280;54933;51.908;7.730;2022-07-17T12:58:15;102069.53;;;23.75;99.90